KDBQ/DBQ METAR and TAF weather

Enter ICAO airport designator
Station Type Date Time Source
KDBQ METAR 2019/08/22 14:53 UTC NOAA

KDBQ 221453Z 04007KT 10SM CLR 20/14 A3006 RMK AO2 SLP177 T02000139 50007


Station Type Date Time Source
KDBQ Decoded METAR 2019/08/22 14:53 UTC NOAA

Station name not available
Aug 22, 2019 - 10:53 AM EDT / 2019.08.22 1453 UTC
Wind: from the NE (040 degrees) at 8 MPH (7 KT):0
Visibility: 10 mile(s):0
Sky conditions: clear
Temperature: 68.0 F (20.0 C)
Dew Point: 57.0 F (13.9 C)
Relative Humidity: 67%
Pressure (altimeter): 30.06 in. Hg (1017 hPa)
Pressure tendency: 0.02 inches (0.7 hPa) higher than three hours ago
ob: KDBQ 221453Z 04007KT 10SM CLR 20/14 A3006 RMK AO2 SLP177 T02000139 50007
cycle: 15

Station Type Date Time Source
KDBQ TAF 2019/08/22 12:30 UTC NOAA

TAF KDBQ 221127Z 2212/2312 VRB03KT P6SM SCT200
FM221500 01006KT P6SM SCT250
FM230300 08005KT P6SM SCT250

Example: see airport list